createdAt,value
2023-02-24T00:05:04.353Z,9
2023-02-24T00:20:38.738Z,6.2
2023-02-24T00:36:13.142Z,4.6
2023-02-24T00:51:47.950Z,4.8
2023-02-24T01:07:22.633Z,6.3
2023-02-24T01:22:57.004Z,5.8
2023-02-24T01:38:31.457Z,4.7
2023-02-24T01:54:05.904Z,6
2023-02-24T02:09:40.325Z,6.1
2023-02-24T02:25:14.796Z,8.2
2023-02-24T02:40:49.186Z,8.5
2023-02-24T02:56:23.599Z,7
2023-02-24T03:11:57.972Z,7.4
2023-02-24T03:27:32.395Z,7.2
2023-02-24T03:43:06.786Z,8
2023-02-24T03:58:41.187Z,7.4
2023-02-24T04:14:15.564Z,6.2
2023-02-24T04:29:49.971Z,6.6
2023-02-24T04:45:24.471Z,7.1
2023-02-24T05:00:58.896Z,4.8
2023-02-24T05:16:33.443Z,6.8
2023-02-24T05:32:08.446Z,5.3
2023-02-24T05:47:43.403Z,6.3
2023-02-24T06:03:17.812Z,4.8
2023-02-24T06:18:52.486Z,4.4
2023-02-24T06:34:26.829Z,3.8
2023-02-24T06:50:01.218Z,4.8
2023-02-24T07:05:35.553Z,4
2023-02-24T07:21:09.884Z,5
2023-02-24T07:36:44.271Z,4.3
2023-02-24T07:52:18.857Z,3.5
2023-02-24T08:07:53.223Z,2.3
2023-02-24T08:23:27.553Z,3.9
2023-02-24T08:39:01.901Z,3.5
2023-02-24T08:54:36.268Z,4.2
2023-02-24T09:10:10.637Z,4.5
2023-02-24T09:25:44.955Z,4.5
2023-02-24T09:41:19.452Z,3
2023-02-24T09:56:53.878Z,4.2
2023-02-24T10:12:28.329Z,3.7
2023-02-24T10:28:02.456Z,2.6
2023-02-24T10:43:36.928Z,3.5
2023-02-24T10:59:11.592Z,3.2
2023-02-24T11:14:46.140Z,3.6
2023-02-24T11:30:20.529Z,3
2023-02-24T11:45:55.046Z,3.2
2023-02-24T12:01:30.114Z,3.5
2023-02-24T12:17:04.591Z,3.1
2023-02-24T12:32:39.263Z,3.6
2023-02-24T12:48:14.557Z,4.2
2023-02-24T13:03:49.029Z,4.5
2023-02-24T13:19:23.466Z,3.8
2023-02-24T13:34:57.842Z,4.5
2023-02-24T13:50:32.287Z,3.8
2023-02-24T14:06:06.681Z,2.9
2023-02-24T14:21:41.096Z,2.1
2023-02-24T14:37:15.450Z,3
2023-02-24T14:52:49.864Z,2.3
2023-02-24T15:08:24.358Z,3
2023-02-24T15:23:58.731Z,2.4
2023-02-24T15:39:33.137Z,3.9
2023-02-24T15:55:07.548Z,3.8
2023-02-24T16:10:41.953Z,4.4
2023-02-24T16:26:16.332Z,3.1
2023-02-24T16:41:50.673Z,3.8
2023-02-24T16:57:25.036Z,3.9
2023-02-24T17:12:59.707Z,3.6
2023-02-24T17:28:34.060Z,4.2
2023-02-24T17:44:08.382Z,2.6
2023-02-24T17:59:42.729Z,2
2023-02-24T18:15:32.528Z,1.8
2023-02-24T18:31:07.054Z,2.2
2023-02-24T18:46:42.039Z,2.9
2023-02-24T19:02:16.756Z,2.7
2023-02-24T19:17:51.497Z,2.5
2023-02-24T19:33:26.092Z,3.3
2023-02-24T19:49:00.433Z,3.8
2023-02-24T20:04:34.829Z,4.1
2023-02-24T20:20:09.462Z,4.1
2023-02-24T20:35:43.838Z,4
2023-02-24T20:51:18.144Z,5.4
2023-02-24T21:06:53.139Z,5.8
2023-02-24T21:22:27.564Z,5.5
2023-02-24T21:38:01.870Z,4.8
2023-02-24T21:53:36.217Z,4.5
2023-02-24T22:09:10.576Z,5.1
2023-02-24T22:24:44.952Z,4.7
2023-02-24T22:40:20.734Z,3.5
2023-02-24T22:55:55.184Z,3.8
2023-02-24T23:11:29.519Z,3.5
2023-02-24T23:27:04.023Z,3.6
2023-02-24T23:42:38.377Z,2.3
2023-02-24T23:58:12.681Z,1.9
